メインページ
METAR-TAF:

METAR-TAF

空港 :

モントリオール・ピエール・エリオット・トルドー国際空港

モントリオール・トルドー, ケベック州, カナダ

緯度: 45-28N, 経度: 073-45W, 海抜: 31m

現時点の気象観測

当レポートは1時間18分前の00:00(UTC)に作成
北東の風 9kt
気温 19°C
湿度 60%
気圧 1025 hPa
視程: 48.3km
高度6000ftの雲はほとんどない
高度25000ftの雲はほとんどない

METAR: CYUL 250000Z 05009KT 30SM FEW060 FEW250 19/11 A3028 RMK SC1CI1 SC TR CI TR SLP255 DENSITY ALT 300FT

時間: 21:18 (01:18 UTC)

予報

当レポートは1時間40分前の23:38(UTC)に作成
予報は25日の 00時(UTC)から 25日の 24時(UTC)まで有効
東/北東の風 5kt
視程: 10km
高度6000ftの雲はほとんどない
確率 30%
25日の 06時(UTC)から 25日の 10時(UTC)まで
視程: 1.6km
25日の 1500時(UTC)から
東/北東の風 6kt
視程: 10km
高度5000ftの雲はほとんどない
25日の 16時(UTC)から 25日の 18時(UTC)まで徐々に
東/南東の風 8kt
25日の 22時(UTC)から 25日の 24時(UTC)まで徐々に
東/北東の風 8kt

TAF: CYUL 242338Z 2500/2524 06005KT P6SM FEW060 PROB30 2506/2510 1SM BR FM251500 06006KT P6SM FEW050 BECMG 2516/2518 11008KT BECMG 2522/2524 06008KT RMK NXT FCST BY 250300Z

4,000以上の空港の気象観測と天気予報(METAR報とTAF報)

利用可能な観測所は地図上に黄色い丸と赤い丸で示す。

丸の上にカーソルを重ねると観測所名を参照できる。

次にクリックすると気象観測と天気予報を参照できる。

マップの切り替え:黒色「×」印の緑ボタンをクリックして拡大、「-」印の緑ボタンをクリックして縮小、緑色の三角印をクリックして隣りの地図に切り替え


METAR-TAF: